Time;durP1;ratioP1;P1;durP2;ratioP2;P2;SDS_P1;SDS_P2;PMS_P1;PMS_P2;Temp;Humidity;BMP_temperature;BMP_pressure;BME280_temperature;BME280_humidity;BME280_pressure;Samples;Min_cycle;Max_cycle;Signal;HPM_P1;HPM_P2
2022/11/30 00:00:16;;;;;;;25.58;12.30;;;8.80;85.50;;;;;;5031971;28;20127;-71
2022/11/30 00:02:43;;;;;;;23.00;12.15;;;8.80;85.40;;;;;;5049745;28;20483;-71
2022/11/30 00:05:10;;;;;;;26.60;12.83;;;8.70;85.40;;;;;;5048792;28;20231;-71
2022/11/30 00:07:39;;;;;;;25.10;11.90;;;8.70;85.40;;;;;;5052097;28;20303;-72
2022/11/30 00:10:08;;;;;;;23.05;11.55;;;8.70;85.30;;;;;;5052015;28;20056;-71
2022/11/30 00:12:35;;;;;;;22.45;11.13;;;8.70;85.20;;;;;;5051842;28;20478;-71
2022/11/30 00:15:02;;;;;;;22.13;11.32;;;8.70;85.00;;;;;;5035240;28;20050;-71
2022/11/30 00:17:29;;;;;;;24.00;11.80;;;8.70;85.10;;;;;;5043226;28;20049;-71
2022/11/30 00:19:56;;;;;;;22.30;11.57;;;8.60;85.20;;;;;;5052860;28;20268;-71
2022/11/30 00:22:24;;;;;;;24.08;11.75;;;8.60;85.30;;;;;;5051844;28;20061;-71
2022/11/30 00:24:52;;;;;;;25.58;12.07;;;8.60;85.30;;;;;;5034790;28;20057;-71
2022/11/30 00:27:19;;;;;;;25.98;12.27;;;8.60;85.30;;;;;;5035166;28;20049;-71
2022/11/30 00:29:46;;;;;;;25.97;12.20;;;8.60;85.10;;;;;;5052466;28;20053;-71
2022/11/30 00:32:13;;;;;;;26.05;11.65;;;8.60;85.20;;;;;;5050320;28;20263;-71
2022/11/30 00:34:40;;;;;;;25.65;11.77;;;8.60;85.20;;;;;;5034911;28;20050;-71
2022/11/30 00:37:07;;;;;;;24.33;12.07;;;8.60;85.20;;;;;;5034760;28;20060;-71
2022/11/30 00:39:34;;;;;;;22.15;11.27;;;8.60;85.20;;;;;;5034220;28;20538;-71
2022/11/30 00:42:03;;;;;;;24.20;11.10;;;8.60;85.10;;;;;;5034989;28;20104;-71
2022/11/30 00:44:30;;;;;;;22.63;11.45;;;8.60;85.10;;;;;;5064853;28;20257;-71
2022/11/30 00:46:57;;;;;;;25.60;12.13;;;8.60;85.10;;;;;;5032829;28;20050;-71
2022/11/30 00:49:24;;;;;;;25.20;11.82;;;8.60;85.10;;;;;;5046830;28;20643;-71
2022/11/30 00:51:51;;;;;;;21.58;10.98;;;8.60;85.10;;;;;;5034441;28;20150;-71
2022/11/30 00:54:18;;;;;;;21.00;10.10;;;8.60;85.10;;;;;;5056972;28;20060;-71
2022/11/30 00:56:45;;;;;;;18.35;9.48;;;8.60;85.00;;;;;;5052574;28;20287;-71
2022/11/30 00:59:14;;;;;;;19.00;9.75;;;8.60;85.00;;;;;;5064385;28;20128;-71
2022/11/30 01:01:41;;;;;;;20.17;10.05;;;8.60;84.80;;;;;;5064858;28;20126;-71
2022/11/30 01:04:08;;;;;;;20.08;9.98;;;8.60;84.80;;;;;;5044721;28;20050;-71
2022/11/30 01:06:36;;;;;;;26.03;11.43;;;8.60;84.80;;;;;;5050804;28;20103;-71
2022/11/30 01:09:04;;;;;;;21.17;10.95;;;8.60;84.60;;;;;;5034537;28;21215;-71
2022/11/30 01:11:32;;;;;;;23.38;11.15;;;8.60;84.30;;;;;;5034212;28;20128;-71
2022/11/30 01:14:01;;;;;;;23.02;11.43;;;8.60;84.10;;;;;;5034629;28;20149;-71
2022/11/30 01:16:32;;;;;;;24.40;11.57;;;8.60;83.90;;;;;;5050778;28;20504;-71
2022/11/30 01:18:59;;;;;;;25.20;11.73;;;8.50;83.90;;;;;;5050120;28;20108;-71
2022/11/30 01:21:27;;;;;;;24.85;11.15;;;8.50;84.00;;;;;;5047436;28;20257;-71
2022/11/30 01:23:55;;;;;;;23.92;12.00;;;8.50;83.70;;;;;;5037395;28;20050;-71
2022/11/30 01:26:23;;;;;;;25.70;12.55;;;8.40;83.70;;;;;;5037756;28;20084;-71
2022/11/30 01:28:51;;;;;;;24.42;12.52;;;8.40;83.70;;;;;;5033241;28;20060;-71
2022/11/30 01:31:19;;;;;;;26.30;12.73;;;8.40;83.80;;;;;;5033867;28;20049;-71
2022/11/30 01:33:51;;;;;;;28.30;12.95;;;8.30;83.90;;;;;;5045817;28;20276;-71
2022/11/30 01:36:19;;;;;;;24.20;11.20;;;8.30;83.80;;;;;;5046490;28;20057;-71
2022/11/30 01:38:48;;;;;;;26.08;12.25;;;8.20;83.90;;;;;;5063842;28;20049;-71
2022/11/30 01:41:18;;;;;;;23.70;11.25;;;8.20;84.10;;;;;;5030947;28;20136;-71
2022/11/30 01:43:47;;;;;;;22.97;11.80;;;8.20;84.50;;;;;;5050187;28;20132;-71
2022/11/30 01:46:23;;;;;;;24.55;11.65;;;8.20;84.50;;;;;;5032080;28;20269;-71
2022/11/30 01:48:59;;;;;;;23.50;11.35;;;8.10;84.30;;;;;;5051120;28;20373;-71
2022/11/30 01:51:31;;;;;;;25.15;11.63;;;8.10;83.90;;;;;;5051686;28;20136;-71
2022/11/30 01:53:58;;;;;;;24.65;12.82;;;8.00;84.10;;;;;;5050198;28;20549;-71
2022/11/30 01:56:26;;;;;;;21.90;10.30;;;8.00;84.30;;;;;;5033668;28;20115;-71
2022/11/30 01:58:53;;;;;;;27.25;11.80;;;8.00;84.40;;;;;;5048852;28;20273;-71
2022/11/30 02:01:20;;;;;;;24.40;11.85;;;8.00;84.30;;;;;;5051710;28;20057;-71
2022/11/30 02:03:54;;;;;;;23.48;10.98;;;7.90;84.50;;;;;;5050500;28;20057;-71
2022/11/30 02:06:24;;;;;;;25.05;10.90;;;7.80;84.70;;;;;;5051008;28;20137;-71
2022/11/30 02:08:52;;;;;;;22.97;12.00;;;7.80;84.30;;;;;;5033321;28;20049;-71
2022/11/30 02:11:20;;;;;;;22.67;11.73;;;7.80;84.50;;;;;;5033289;28;20249;-71
2022/11/30 02:14:04;;;;;;;26.33;12.05;;;7.80;84.80;;;;;;5050093;28;20490;-71
2022/11/30 02:16:41;;;;;;;24.33;12.23;;;7.70;85.10;;;;;;5049748;28;20058;-71
2022/11/30 02:19:39;;;;;;;24.98;12.00;;;7.70;85.00;;;;;;5033099;28;20144;-71
2022/11/30 02:22:18;;;;;;;26.93;13.03;;;7.80;85.10;;;;;;5050856;28;20597;-71
2022/11/30 02:24:56;;;;;;;25.98;12.05;;;7.80;85.10;;;;;;5049733;28;20349;-71
2022/11/30 02:27:39;;;;;;;24.67;12.38;;;7.80;85.00;;;;;;5051067;28;20120;-71
2022/11/30 02:30:11;;;;;;;27.15;12.52;;;7.70;85.00;;;;;;5031943;28;20128;-71
2022/11/30 02:32:43;;;;;;;28.23;12.85;;;7.60;85.10;;;;;;5046344;28;20132;-71
2022/11/30 02:35:11;;;;;;;27.33;12.30;;;7.70;85.30;;;;;;5045493;28;20984;-71
2022/11/30 02:37:40;;;;;;;26.98;12.07;;;7.60;85.30;;;;;;5051171;28;20295;-71
2022/11/30 02:40:09;;;;;;;23.75;11.63;;;7.60;85.50;;;;;;5050715;28;20140;-71
2022/11/30 02:42:36;;;;;;;24.40;12.38;;;7.60;85.50;;;;;;5051203;28;20064;-71
2022/11/30 02:45:04;;;;;;;28.17;12.93;;;7.60;85.50;;;;;;5048940;28;20847;-71
2022/11/30 02:47:37;;;;;;;25.73;12.13;;;7.60;85.50;;;;;;5049451;28;20431;-71
2022/11/30 02:50:10;;;;;;;28.15;12.43;;;7.60;85.50;;;;;;5050485;28;20339;-71
2022/11/30 02:52:38;;;;;;;25.95;12.05;;;7.60;85.80;;;;;;5036625;28;20064;-71
2022/11/30 02:55:07;;;;;;;25.40;13.00;;;7.60;85.70;;;;;;5041187;28;20076;-71
2022/11/30 02:57:34;;;;;;;26.55;13.00;;;7.60;85.70;;;;;;5050678;28;20473;-71
2022/11/30 03:00:05;;;;;;;25.83;12.60;;;7.60;85.70;;;;;;5035743;28;20077;-71
2022/11/30 03:02:34;;;;;;;27.45;13.85;;;7.60;85.70;;;;;;5050739;28;20263;-71
2022/11/30 03:05:01;;;;;;;26.80;13.32;;;7.60;85.80;;;;;;5050307;28;20132;-71
2022/11/30 03:07:28;;;;;;;28.08;14.07;;;7.60;85.80;;;;;;5048857;28;20133;-71
2022/11/30 03:09:55;;;;;;;25.90;13.63;;;7.60;85.80;;;;;;5048952;28;20057;-71
2022/11/30 03:12:22;;;;;;;27.10;13.33;;;7.70;85.80;;;;;;5050658;28;20057;-71
2022/11/30 03:14:50;;;;;;;26.55;12.57;;;7.70;85.90;;;;;;5032468;28;21282;-72
2022/11/30 03:17:17;;;;;;;26.77;13.07;;;7.70;85.90;;;;;;5049317;28;20909;-71
2022/11/30 03:19:45;;;;;;;25.70;13.05;;;7.70;85.90;;;;;;5032251;28;20053;-71
2022/11/30 03:22:12;;;;;;;27.50;13.65;;;7.70;85.90;;;;;;5048927;28;20152;-71
2022/11/30 03:24:39;;;;;;;25.50;12.80;;;7.80;85.90;;;;;;5045673;28;20586;-71
2022/11/30 03:27:07;;;;;;;30.95;13.90;;;7.70;86.00;;;;;;5034440;28;21363;-71
2022/11/30 03:29:35;;;;;;;26.70;13.23;;;7.80;86.00;;;;;;5031958;28;20060;-71
2022/11/30 03:32:02;;;;;;;26.92;13.48;;;7.80;86.00;;;;;;5032516;28;20060;-71
2022/11/30 03:34:29;;;;;;;31.17;13.88;;;7.80;86.00;;;;;;5048349;28;21049;-71
2022/11/30 03:36:57;;;;;;;29.83;13.63;;;7.80;86.00;;;;;;5065617;28;20077;-71
2022/11/30 03:39:24;;;;;;;26.77;13.07;;;7.80;86.00;;;;;;5031941;28;20272;-71
2022/11/30 03:41:52;;;;;;;27.90;13.93;;;7.80;86.10;;;;;;5049882;28;20162;-71
2022/11/30 03:44:20;;;;;;;26.70;13.80;;;7.80;86.10;;;;;;5030903;28;20133;-71
2022/11/30 03:46:47;;;;;;;28.13;13.65;;;7.80;86.10;;;;;;5032169;28;20133;-71
2022/11/30 03:49:14;;;;;;;28.50;13.60;;;7.80;86.20;;;;;;5049529;28;20057;-71
2022/11/30 03:51:41;;;;;;;26.92;13.55;;;7.80;86.10;;;;;;5048499;28;20373;-71
2022/11/30 03:54:09;;;;;;;27.73;13.07;;;7.80;86.10;;;;;;5048424;28;20037;-71
2022/11/30 03:56:36;;;;;;;27.75;13.48;;;7.80;86.10;;;;;;5031710;28;20056;-71
2022/11/30 03:59:03;;;;;;;28.30;12.88;;;7.80;86.10;;;;;;5062019;28;20050;-71
2022/11/30 04:01:30;;;;;;;26.97;13.97;;;7.90;86.10;;;;;;5028520;28;20046;-71
2022/11/30 04:03:57;;;;;;;28.02;13.38;;;7.90;86.10;;;;;;5063649;28;20681;-71
2022/11/30 04:06:25;;;;;;;28.73;13.55;;;7.80;86.10;;;;;;5065337;28;20077;-71
2022/11/30 04:08:52;;;;;;;28.80;14.48;;;7.90;86.10;;;;;;5064739;28;20053;-71
2022/11/30 04:11:20;;;;;;;26.67;13.40;;;7.90;86.10;;;;;;5048497;28;20168;-71
2022/11/30 04:13:47;;;;;;;31.60;13.80;;;7.90;86.10;;;;;;5049364;28;20057;-71
2022/11/30 04:16:14;;;;;;;28.48;13.50;;;7.90;86.10;;;;;;5049549;28;20280;-71
2022/11/30 04:18:41;;;;;;;30.10;14.52;;;7.90;86.20;;;;;;5044950;28;20057;-71
2022/11/30 04:21:08;;;;;;;29.52;13.90;;;7.90;86.10;;;;;;5044490;28;20046;-71
2022/11/30 04:23:37;;;;;;;28.27;14.35;;;7.90;86.00;;;;;;5044908;28;20121;-71
2022/11/30 04:26:06;;;;;;;29.10;13.87;;;8.00;86.10;;;;;;5029837;28;20167;-71
2022/11/30 04:28:35;;;;;;;30.95;13.90;;;8.00;86.20;;;;;;5043582;28;20269;-71
2022/11/30 04:31:03;;;;;;;28.05;13.80;;;8.00;86.20;;;;;;5031268;28;21039;-70
2022/11/30 04:33:30;;;;;;;28.23;14.23;;;8.00;86.20;;;;;;5061554;28;20049;-71
2022/11/30 04:35:59;;;;;;;32.95;14.85;;;8.00;86.20;;;;;;5029698;28;20049;-70
2022/11/30 04:38:27;;;;;;;28.87;14.47;;;8.00;86.20;;;;;;5063260;28;20049;-71
2022/11/30 04:40:55;;;;;;;29.55;13.80;;;8.00;86.20;;;;;;5047685;28;20260;-71
2022/11/30 04:43:22;;;;;;;31.38;14.20;;;8.00;86.20;;;;;;5052668;28;20050;-71
2022/11/30 04:45:51;;;;;;;27.38;14.48;;;8.00;86.20;;;;;;5021020;28;20053;-71
2022/11/30 04:48:19;;;;;;;27.50;13.55;;;8.00;86.20;;;;;;5061017;28;20054;-71
2022/11/30 04:50:46;;;;;;;29.57;13.70;;;8.00;86.20;;;;;;5028853;28;20058;-71
2022/11/30 04:53:13;;;;;;;28.45;13.80;;;8.00;86.20;;;;;;5040907;28;20261;-70
2022/11/30 04:55:40;;;;;;;29.67;13.63;;;8.00;86.10;;;;;;5050556;28;20131;-71
2022/11/30 04:58:08;;;;;;;30.88;13.82;;;8.00;86.00;;;;;;5034602;28;20050;-71
2022/11/30 05:00:36;;;;;;;29.90;13.63;;;8.00;86.10;;;;;;5052364;28;20077;-71
2022/11/30 05:03:04;;;;;;;29.70;13.70;;;8.00;86.10;;;;;;5052410;28;20057;-70
2022/11/30 05:05:31;;;;;;;31.05;14.20;;;7.90;86.20;;;;;;5052308;28;20288;-71
2022/11/30 05:07:59;;;;;;;30.48;14.07;;;8.00;86.20;;;;;;5052222;28;20135;-70
2022/11/30 05:10:59;;;;;;;30.35;13.38;;;8.00;86.20;;;;;;5052214;28;20049;-71
2022/11/30 05:13:27;;;;;;;28.52;13.38;;;8.00;86.20;;;;;;5041580;28;20526;-71
2022/11/30 05:15:54;;;;;;;29.23;12.70;;;8.00;86.20;;;;;;5034605;28;20717;-71
2022/11/30 05:18:23;;;;;;;27.85;13.13;;;8.00;86.30;;;;;;5034366;28;20283;-71
2022/11/30 05:20:51;;;;;;;31.02;13.68;;;8.00;86.20;;;;;;5050886;28;20053;-70
2022/11/30 05:23:20;;;;;;;29.95;13.35;;;8.00;86.20;;;;;;5047591;28;20046;-70
2022/11/30 05:25:48;;;;;;;29.00;14.00;;;8.00;86.30;;;;;;5034241;28;20129;-70
2022/11/30 05:28:15;;;;;;;32.13;13.83;;;8.00;86.20;;;;;;5052085;28;20054;-71
2022/11/30 05:30:43;;;;;;;30.50;14.07;;;8.00;86.20;;;;;;5050642;28;20695;-70
2022/11/30 05:33:10;;;;;;;30.08;13.60;;;8.00;86.30;;;;;;5034125;28;20125;-70
2022/11/30 05:35:39;;;;;;;31.55;13.27;;;8.00;86.20;;;;;;5051763;28;20491;-71
2022/11/30 05:38:07;;;;;;;31.35;14.07;;;8.00;86.20;;;;;;5052017;28;20132;-71
2022/11/30 05:40:34;;;;;;;31.90;13.47;;;8.00;86.20;;;;;;5050216;28;20064;-71
2022/11/30 05:43:02;;;;;;;31.02;14.43;;;8.00;86.30;;;;;;5047155;28;20352;-71
2022/11/30 05:45:30;;;;;;;29.85;13.35;;;8.00;86.30;;;;;;5030640;28;20062;-70
2022/11/30 05:47:57;;;;;;;31.48;13.90;;;8.10;86.20;;;;;;5031864;28;20125;-71
2022/11/30 05:50:24;;;;;;;31.20;13.82;;;8.00;86.20;;;;;;5050510;28;20053;-70
2022/11/30 05:52:55;;;;;;;31.17;13.43;;;8.10;86.20;;;;;;5033588;28;20595;-70
2022/11/30 05:55:22;;;;;;;31.55;13.20;;;8.10;86.10;;;;;;5050230;28;20279;-70
2022/11/30 05:57:49;;;;;;;30.65;13.63;;;8.10;86.10;;;;;;5033710;28;20054;-70
2022/11/30 06:00:17;;;;;;;30.95;13.35;;;8.10;86.10;;;;;;5049972;28;20136;-70
2022/11/30 06:02:44;;;;;;;29.88;12.85;;;8.10;86.10;;;;;;5051264;28;20084;-70
2022/11/30 06:05:12;;;;;;;31.53;13.80;;;8.10;86.10;;;;;;5050164;28;20049;-70
2022/11/30 06:08:05;;;;;;;31.80;13.27;;;8.10;86.10;;;;;;5046789;28;20246;-71
2022/11/30 06:10:32;;;;;;;26.95;11.88;;;8.10;86.10;;;;;;5031763;28;20500;-70
2022/11/30 06:13:05;;;;;;;30.90;13.05;;;8.10;86.10;;;;;;5049781;28;20652;-70
2022/11/30 06:15:33;;;;;;;30.40;12.30;;;8.10;86.20;;;;;;5050875;28;21004;-70
2022/11/30 06:18:00;;;;;;;27.80;12.27;;;8.10;86.10;;;;;;5033391;28;20104;-70
2022/11/30 06:20:27;;;;;;;32.30;12.85;;;8.10;86.10;;;;;;5049366;28;20257;-70
2022/11/30 06:22:54;;;;;;;29.98;12.05;;;8.10;86.10;;;;;;5029828;28;20529;-70
2022/11/30 06:25:22;;;;;;;29.77;12.75;;;8.10;86.00;;;;;;5046061;28;20050;-71
2022/11/30 06:27:49;;;;;;;33.75;13.65;;;8.10;86.00;;;;;;5051661;28;20058;-70
2022/11/30 06:30:17;;;;;;;33.13;12.97;;;8.10;86.00;;;;;;5051007;28;20150;-70
2022/11/30 06:32:45;;;;;;;31.42;13.80;;;8.10;85.90;;;;;;5051247;28;20264;-70
2022/11/30 06:35:12;;;;;;;29.33;12.57;;;8.10;85.80;;;;;;5054470;28;20601;-70
2022/11/30 06:37:39;;;;;;;29.50;13.48;;;8.10;85.90;;;;;;5051225;28;20170;-70
2022/11/30 06:40:07;;;;;;;28.27;12.05;;;8.10;85.80;;;;;;5050353;28;20053;-70
2022/11/30 06:42:37;;;;;;;27.77;12.43;;;8.10;85.80;;;;;;5031244;28;20037;-70
2022/11/30 06:45:06;;;;;;;27.60;11.95;;;8.10;85.80;;;;;;5050854;28;20324;-70
2022/11/30 06:47:33;;;;;;;32.28;11.90;;;8.10;85.80;;;;;;5033026;28;20050;-70
2022/11/30 06:50:00;;;;;;;29.13;11.95;;;8.10;85.80;;;;;;5049565;28;20046;-70
2022/11/30 06:52:30;;;;;;;29.88;12.27;;;8.10;85.80;;;;;;5062274;28;20149;-70
2022/11/30 06:54:57;;;;;;;29.50;12.73;;;8.10;85.80;;;;;;5063428;28;20060;-70
2022/11/30 06:57:27;;;;;;;29.08;12.27;;;8.10;85.70;;;;;;5037237;28;20275;-70
2022/11/30 06:59:56;;;;;;;28.45;12.88;;;8.10;85.50;;;;;;5049088;28;20835;-70
2022/11/30 07:02:24;;;;;;;29.80;12.45;;;8.10;85.40;;;;;;5048983;28;20597;-70
2022/11/30 07:04:51;;;;;;;28.95;12.75;;;8.10;85.30;;;;;;5050158;28;20133;-70
2022/11/30 07:07:18;;;;;;;28.23;11.70;;;8.10;85.40;;;;;;5049236;28;20192;-70
2022/11/30 07:09:45;;;;;;;33.60;12.93;;;8.10;85.50;;;;;;5049916;28;20339;-70
2022/11/30 07:12:12;;;;;;;32.50;12.98;;;8.10;85.40;;;;;;5049186;28;20053;-70
2022/11/30 07:14:40;;;;;;;36.60;14.60;;;8.00;85.40;;;;;;5050111;28;20798;-70
2022/11/30 07:17:08;;;;;;;35.40;13.73;;;8.00;85.40;;;;;;5048599;28;20050;-70
2022/11/30 07:19:35;;;;;;;34.67;13.87;;;8.00;85.40;;;;;;5044004;28;20089;-70
2022/11/30 07:22:02;;;;;;;30.88;13.32;;;8.00;85.50;;;;;;5029471;28;20276;-70
2022/11/30 07:27:14;;;;;;;31.30;12.85;;;8.00;85.60;;;;;;5031569;28;20049;-70
2022/11/30 07:29:41;;;;;;;29.90;11.82;;;8.00;85.70;;;;;;5064811;28;20124;-70
2022/11/30 07:32:09;;;;;;;28.03;11.67;;;8.00;85.70;;;;;;5058215;28;20060;-70
2022/11/30 07:34:36;;;;;;;28.88;11.63;;;8.00;85.70;;;;;;5062920;28;20285;-70
2022/11/30 07:37:03;;;;;;;24.38;10.85;;;8.00;85.70;;;;;;5037344;28;20048;-70
2022/11/30 07:39:30;;;;;;;24.80;11.65;;;8.10;85.70;;;;;;5062124;28;20055;-70
2022/11/30 07:41:57;;;;;;;28.15;11.27;;;8.10;85.60;;;;;;5062310;28;20132;-70
2022/11/30 07:44:26;;;;;;;26.50;11.13;;;8.00;85.50;;;;;;5046041;28;20117;-70
2022/11/30 07:46:53;;;;;;;25.58;10.55;;;8.10;85.50;;;;;;5062798;28;20284;-70
2022/11/30 07:49:22;;;;;;;24.63;10.73;;;8.10;85.50;;;;;;5046980;28;20132;-70
2022/11/30 07:51:49;;;;;;;25.23;10.48;;;8.10;85.50;;;;;;5030554;28;20053;-70
2022/11/30 07:54:16;;;;;;;25.00;10.55;;;8.10;85.20;;;;;;5062393;28;20097;-70
2022/11/30 07:56:43;;;;;;;24.20;10.63;;;8.00;85.20;;;;;;5048723;28;20510;-70
2022/11/30 07:59:10;;;;;;;28.23;11.55;;;8.00;85.20;;;;;;5030937;28;20249;-70
2022/11/30 08:01:37;;;;;;;25.85;11.07;;;8.00;85.40;;;;;;5031354;28;20108;-70
2022/11/30 08:04:04;;;;;;;24.10;10.88;;;8.10;85.30;;;;;;5048644;28;20057;-70
2022/11/30 08:06:32;;;;;;;23.20;10.68;;;8.10;85.30;;;;;;5052338;28;20079;-70
2022/11/30 08:09:01;;;;;;;23.70;10.67;;;8.10;85.20;;;;;;5058053;28;20084;-70
2022/11/30 08:11:30;;;;;;;22.73;9.98;;;8.10;85.00;;;;;;5059958;28;20347;-70
2022/11/30 08:13:57;;;;;;;21.48;9.50;;;8.00;85.00;;;;;;5052739;28;20052;-70
2022/11/30 08:16:26;;;;;;;20.33;9.52;;;8.00;85.20;;;;;;5063813;28;20045;-70
2022/11/30 08:18:54;;;;;;;21.50;9.55;;;8.00;85.10;;;;;;5029353;28;20879;-70
2022/11/30 08:21:22;;;;;;;17.87;8.90;;;8.10;85.10;;;;;;5030422;28;20129;-70
2022/11/30 08:23:53;;;;;;;22.60;9.63;;;8.00;85.10;;;;;;5027973;28;20389;-70
2022/11/30 08:26:21;;;;;;;21.23;8.52;;;8.00;85.00;;;;;;5044486;28;20054;-70
2022/11/30 08:28:50;;;;;;;20.40;10.00;;;8.00;85.00;;;;;;5047425;28;20057;-70
2022/11/30 08:31:19;;;;;;;19.58;9.18;;;8.00;84.90;;;;;;5030614;28;20048;-70
2022/11/30 08:33:47;;;;;;;17.97;8.53;;;8.00;84.90;;;;;;5032707;28;20052;-70
2022/11/30 08:36:15;;;;;;;18.98;8.93;;;8.00;84.90;;;;;;5047689;28;20285;-70
2022/11/30 08:38:44;;;;;;;18.17;8.85;;;8.00;84.80;;;;;;5031267;28;20121;-70
2022/11/30 08:41:14;;;;;;;17.52;8.82;;;8.00;84.70;;;;;;5050532;28;20045;-70
2022/11/30 08:43:41;;;;;;;19.02;9.30;;;8.00;84.70;;;;;;5052348;28;20128;-70
2022/11/30 08:46:11;;;;;;;18.43;9.03;;;8.00;84.80;;;;;;5048011;28;20456;-71
2022/11/30 08:48:38;;;;;;;19.92;8.90;;;8.00;84.70;;;;;;5049720;28;20273;-70
2022/11/30 08:51:06;;;;;;;18.13;9.18;;;8.00;84.70;;;;;;5050688;28;20128;-70
2022/11/30 08:53:34;;;;;;;19.90;9.23;;;8.00;84.70;;;;;;5051071;28;20053;-70
2022/11/30 08:56:03;;;;;;;19.25;8.88;;;8.00;84.60;;;;;;5034681;28;20495;-71
2022/11/30 08:58:33;;;;;;;18.90;9.33;;;8.00;84.60;;;;;;5052545;28;20455;-70
2022/11/30 09:01:06;;;;;;;18.60;8.85;;;8.00;84.70;;;;;;5057367;28;20256;-70
2022/11/30 09:03:33;;;;;;;19.92;9.27;;;8.00;84.70;;;;;;5061534;28;20057;-70
2022/11/30 09:06:04;;;;;;;20.75;9.27;;;8.00;84.70;;;;;;5053697;28;20049;-70
2022/11/30 09:08:31;;;;;;;17.92;8.68;;;8.00;84.60;;;;;;5051324;28;20053;-70
2022/11/30 09:10:58;;;;;;;17.43;8.90;;;8.00;84.70;;;;;;5051901;28;20046;-70
2022/11/30 09:13:25;;;;;;;17.58;8.57;;;8.00;84.70;;;;;;5050105;28;20277;-70
2022/11/30 09:15:56;;;;;;;16.05;9.32;;;8.00;84.70;;;;;;5050984;28;20124;-70
2022/11/30 09:18:22;;;;;;;14.00;8.13;;;8.00;84.60;;;;;;5063932;28;20610;-70
2022/11/30 09:20:49;;;;;;;15.93;8.60;;;8.00;84.60;;;;;;5066568;28;20049;-71
2022/11/30 09:23:16;;;;;;;14.60;8.23;;;8.00;84.50;;;;;;5049170;28;20060;-70
2022/11/30 09:25:43;;;;;;;15.73;7.95;;;8.00;84.40;;;;;;5064239;28;20245;-70
2022/11/30 09:28:10;;;;;;;14.77;8.38;;;8.00;84.50;;;;;;5033931;28;20055;-70
2022/11/30 09:30:37;;;;;;;15.57;8.52;;;8.00;84.10;;;;;;5066142;28;20077;-70
2022/11/30 09:33:05;;;;;;;14.40;8.35;;;8.00;84.00;;;;;;5049695;28;20046;-70
2022/11/30 09:35:32;;;;;;;13.87;8.13;;;8.00;84.20;;;;;;5070909;28;20046;-70
2022/11/30 09:37:59;;;;;;;15.38;8.35;;;8.00;84.40;;;;;;5049622;28;20256;-70
2022/11/30 09:40:29;;;;;;;14.15;8.20;;;8.00;84.40;;;;;;5062680;28;20635;-70
2022/11/30 09:43:05;;;;;;;17.92;9.07;;;8.00;84.30;;;;;;5064197;28;20515;-70
2022/11/30 09:45:34;;;;;;;16.40;8.90;;;8.00;84.30;;;;;;5050332;28;20722;-70
2022/11/30 09:48:27;;;;;;;13.43;8.00;;;8.00;84.20;;;;;;5050755;28;20049;-70
2022/11/30 09:50:54;;;;;;;16.20;8.50;;;8.00;84.10;;;;;;5033286;28;20312;-70
2022/11/30 09:53:29;;;;;;;13.27;8.20;;;8.00;84.20;;;;;;5050907;28;20484;-70
2022/11/30 09:55:56;;;;;;;14.90;8.63;;;8.00;84.40;;;;;;5049697;28;20197;-70
2022/11/30 09:58:33;;;;;;;15.05;8.63;;;8.00;84.30;;;;;;5049000;28;20042;-70
2022/11/30 10:01:01;;;;;;;17.40;8.70;;;8.00;84.20;;;;;;5053957;28;20155;-70
2022/11/30 10:03:29;;;;;;;15.88;8.70;;;8.00;84.50;;;;;;5067140;28;20269;-70
2022/11/30 10:06:03;;;;;;;16.42;9.13;;;8.00;84.50;;;;;;5051072;28;20057;-71
2022/11/30 10:08:42;;;;;;;16.15;9.18;;;8.00;84.50;;;;;;5061912;28;20085;-71
2022/11/30 10:11:43;;;;;;;14.93;8.77;;;8.00;84.50;;;;;;5045946;28;20620;-71
2022/11/30 10:14:26;;;;;;;14.13;8.17;;;8.10;84.50;;;;;;5026210;28;20146;-71
2022/11/30 10:17:04;;;;;;;15.77;8.60;;;8.10;84.60;;;;;;5051149;28;20280;-71
2022/11/30 10:19:51;;;;;;;14.30;8.60;;;8.10;84.60;;;;;;5064653;28;21191;-70
2022/11/30 10:22:26;;;;;;;14.80;8.20;;;8.10;84.40;;;;;;5038960;28;20076;-70
2022/11/30 10:25:12;;;;;;;15.23;8.30;;;8.10;84.60;;;;;;5066441;28;20059;-70
2022/11/30 10:27:49;;;;;;;14.20;8.33;;;8.10;84.50;;;;;;5065730;28;20053;-70
2022/11/30 10:30:18;;;;;;;13.60;8.15;;;8.10;84.30;;;;;;5037275;28;20260;-70
2022/11/30 10:32:48;;;;;;;13.90;8.27;;;8.10;84.20;;;;;;5047811;28;20096;-71
2022/11/30 10:35:23;;;;;;;15.40;8.15;;;8.10;84.40;;;;;;5065494;28;20055;-70
2022/11/30 10:37:51;;;;;;;15.25;8.77;;;8.10;84.10;;;;;;5048640;28;20057;-71
2022/11/30 10:40:23;;;;;;;14.83;8.67;;;8.10;84.00;;;;;;5031806;28;20045;-70
2022/11/30 10:42:57;;;;;;;16.30;8.93;;;8.10;84.30;;;;;;5031496;28;21215;-70
2022/11/30 10:45:27;;;;;;;16.98;9.30;;;8.10;84.40;;;;;;5048727;28;20050;-71
2022/11/30 10:48:00;;;;;;;18.38;9.50;;;8.10;84.40;;;;;;5063252;28;20591;-71
2022/11/30 10:50:30;;;;;;;18.23;9.60;;;8.10;84.30;;;;;;5046915;28;20141;-70
2022/11/30 10:52:59;;;;;;;17.83;9.20;;;8.10;84.10;;;;;;5042799;28;20046;-71
2022/11/30 10:55:29;;;;;;;19.08;9.45;;;8.10;84.10;;;;;;5050297;28;20368;-71
2022/11/30 10:58:01;;;;;;;18.55;10.02;;;8.10;84.20;;;;;;5050633;28;20148;-71
2022/11/30 11:00:28;;;;;;;18.92;10.25;;;8.20;84.40;;;;;;5060503;28;20577;-71
2022/11/30 11:02:55;;;;;;;19.75;10.20;;;8.20;84.40;;;;;;5030343;28;20125;-71
2022/11/30 11:05:28;;;;;;;19.43;10.23;;;8.20;84.30;;;;;;5063272;28;20919;-71
2022/11/30 11:07:58;;;;;;;20.98;10.02;;;8.20;84.40;;;;;;5030435;28;20934;-71
2022/11/30 11:10:30;;;;;;;21.00;10.75;;;8.20;84.50;;;;;;5048266;28;20939;-71
2022/11/30 11:12:57;;;;;;;22.15;11.00;;;8.20;84.30;;;;;;5044959;28;20046;-71
2022/11/30 11:15:29;;;;;;;21.17;10.48;;;8.20;84.30;;;;;;5064761;28;20042;-71
2022/11/30 11:18:22;;;;;;;20.93;11.07;;;8.20;84.20;;;;;;5046965;28;20064;-71
2022/11/30 11:21:01;;;;;;;23.90;11.60;;;8.20;84.10;;;;;;5061538;28;20311;-71
2022/11/30 11:23:32;;;;;;;20.88;11.05;;;8.20;84.00;;;;;;5063385;28;20977;-71
2022/11/30 11:25:59;;;;;;;21.17;10.88;;;8.20;84.00;;;;;;5055815;28;20049;-71
2022/11/30 11:28:26;;;;;;;22.08;11.80;;;8.20;84.10;;;;;;5049593;28;20053;-71
2022/11/30 11:30:55;;;;;;;21.60;11.37;;;8.20;84.00;;;;;;5030217;28;20662;-71
2022/11/30 11:33:24;;;;;;;22.65;11.35;;;8.30;84.00;;;;;;5031605;28;20283;-71
2022/11/30 11:35:55;;;;;;;25.83;11.52;;;8.20;83.90;;;;;;5042130;28;20046;-70
2022/11/30 11:38:27;;;;;;;22.90;11.40;;;8.20;84.00;;;;;;5048958;28;20164;-72
2022/11/30 11:40:58;;;;;;;21.08;10.90;;;8.20;84.00;;;;;;5031812;28;20049;-72
2022/11/30 11:43:27;;;;;;;23.70;11.73;;;8.20;84.00;;;;;;5048569;28;20057;-72
2022/11/30 11:45:56;;;;;;;25.17;12.40;;;8.20;84.00;;;;;;5029416;28;20287;-71
2022/11/30 11:48:30;;;;;;;23.15;11.40;;;8.20;83.90;;;;;;5043827;28;20060;-72
2022/11/30 11:51:00;;;;;;;20.90;10.95;;;8.20;83.90;;;;;;5046149;28;20729;-72
2022/11/30 11:53:45;;;;;;;21.70;11.68;;;8.20;83.90;;;;;;5046941;28;20158;-71
2022/11/30 11:56:17;;;;;;;21.67;11.43;;;8.20;83.80;;;;;;5030879;28;20526;-71
2022/11/30 11:58:50;;;;;;;19.73;11.30;;;8.20;84.00;;;;;;5049625;28;20277;-71
2022/11/30 12:01:27;;;;;;;21.17;11.23;;;8.20;84.20;;;;;;5061163;28;20466;-71
2022/11/30 12:04:11;;;;;;;23.05;12.02;;;8.20;84.20;;;;;;5067868;28;20053;-71
2022/11/30 12:06:45;;;;;;;22.70;11.55;;;8.20;84.20;;;;;;5050532;28;20139;-71
2022/11/30 12:09:17;;;;;;;21.83;11.20;;;8.20;84.20;;;;;;5065457;28;20050;-72
2022/11/30 12:11:47;;;;;;;20.83;11.35;;;8.30;84.10;;;;;;5034922;28;20257;-72
2022/11/30 12:14:16;;;;;;;23.23;11.38;;;8.30;84.10;;;;;;5055494;28;20140;-71
2022/11/30 12:16:58;;;;;;;20.63;10.73;;;8.30;84.20;;;;;;5053366;28;20141;-71
2022/11/30 12:19:33;;;;;;;20.25;11.02;;;8.30;84.10;;;;;;5034648;28;20081;-72
2022/11/30 12:22:12;;;;;;;24.60;11.87;;;8.30;84.00;;;;;;5053379;28;20061;-72
2022/11/30 12:25:02;;;;;;;21.20;11.05;;;8.30;84.00;;;;;;5035282;28;20384;-72
2022/11/30 12:27:41;;;;;;;21.13;11.55;;;8.30;83.90;;;;;;5046888;28;20498;-72
2022/11/30 12:30:18;;;;;;;20.40;10.90;;;8.30;83.80;;;;;;5050416;28;20049;-71
2022/11/30 12:33:12;;;;;;;19.80;10.90;;;8.30;83.80;;;;;;5050603;28;20500;-72
2022/11/30 12:35:47;;;;;;;21.07;11.10;;;8.30;83.80;;;;;;5053356;28;20057;-72
2022/11/30 12:38:25;;;;;;;23.00;11.40;;;8.30;83.70;;;;;;5034981;28;20385;-71
2022/11/30 12:40:59;;;;;;;20.00;10.70;;;8.30;83.80;;;;;;5052709;28;20057;-71
2022/11/30 12:43:35;;;;;;;22.50;11.38;;;8.30;83.70;;;;;;5066362;28;20052;-72
2022/11/30 12:46:09;;;;;;;22.88;11.63;;;8.40;83.80;;;;;;5059801;28;20053;-71
2022/11/30 12:48:43;;;;;;;23.20;11.10;;;8.40;83.50;;;;;;5058986;28;20045;-72
2022/11/30 12:51:17;;;;;;;22.13;11.43;;;8.40;83.70;;;;;;5055731;28;20264;-71
2022/11/30 12:53:54;;;;;;;22.77;11.57;;;8.40;83.70;;;;;;5060885;28;20512;-72